createdAt,value
2022-11-29T00:01:30.688Z,0.80
2022-11-29T00:03:57.433Z,0.60
2022-11-29T00:06:29.143Z,0.77
2022-11-29T00:08:57.364Z,0.50
2022-11-29T00:11:45.190Z,0.80
2022-11-29T00:14:14.807Z,0.60
2022-11-29T00:16:42.377Z,765.00
2022-11-29T00:19:10.396Z,312.25
2022-11-29T00:21:36.942Z,209.55
2022-11-29T00:24:04.044Z,235.65
2022-11-29T00:26:30.588Z,220.55
2022-11-29T00:28:58.536Z,200.95
2022-11-29T00:31:27.583Z,194.88
2022-11-29T00:33:54.740Z,174.02
2022-11-29T00:36:21.281Z,156.40
2022-11-29T00:38:47.868Z,137.63
2022-11-29T00:41:15.544Z,126.72
2022-11-29T00:43:42.300Z,115.85
2022-11-29T00:46:09.549Z,107.22
2022-11-29T00:48:37.036Z,100.55
2022-11-29T00:51:04.921Z,89.35
2022-11-29T00:53:32.145Z,81.65
2022-11-29T00:55:58.709Z,77.53
2022-11-29T00:58:25.817Z,71.82
2022-11-29T01:00:56.188Z,69.43
2022-11-29T01:03:23.908Z,62.65
2022-11-29T01:05:50.563Z,55.40
2022-11-29T01:08:17.441Z,53.83
2022-11-29T01:10:44.513Z,49.85
2022-11-29T01:13:11.502Z,45.38
2022-11-29T01:15:38.146Z,42.25
2022-11-29T01:18:04.846Z,41.03
2022-11-29T01:20:31.595Z,35.72
2022-11-29T01:22:58.346Z,36.05
2022-11-29T01:25:25.547Z,31.48
2022-11-29T01:27:52.386Z,30.88
2022-11-29T01:30:19.002Z,28.83
2022-11-29T01:32:45.634Z,26.17
2022-11-29T01:35:12.763Z,25.33
2022-11-29T01:37:39.353Z,23.27
2022-11-29T01:40:26.184Z,21.45
2022-11-29T01:42:52.801Z,21.02
2022-11-29T01:45:25.557Z,19.13
2022-11-29T01:47:57.093Z,18.27
2022-11-29T01:50:23.920Z,17.73
2022-11-29T01:52:50.730Z,16.10
2022-11-29T01:55:18.247Z,14.27
2022-11-29T01:57:45.160Z,14.23
2022-11-29T02:00:15.366Z,13.25
2022-11-29T02:02:45.044Z,13.00
2022-11-29T02:05:13.940Z,12.23
2022-11-29T02:07:42.395Z,12.27
2022-11-29T02:10:11.850Z,10.88
2022-11-29T02:12:40.117Z,11.35
2022-11-29T02:15:19.374Z,9.98
2022-11-29T02:18:14.695Z,9.77
2022-11-29T02:21:26.245Z,9.07
2022-11-29T02:24:15.195Z,8.77
2022-11-29T02:27:03.221Z,8.00
2022-11-29T02:29:40.805Z,8.05
2022-11-29T02:32:44.542Z,7.32
2022-11-29T02:35:26.848Z,7.25
2022-11-29T02:38:22.235Z,6.68
2022-11-29T02:41:04.653Z,7.18
2022-11-29T02:44:02.311Z,6.47
2022-11-29T02:46:43.794Z,6.10
2022-11-29T02:49:28.897Z,6.57
2022-11-29T02:52:00.601Z,5.75
2022-11-29T02:54:38.938Z,5.85
2022-11-29T02:57:25.922Z,5.55
2022-11-29T02:59:52.960Z,5.25
2022-11-29T03:02:42.790Z,5.35
2022-11-29T03:05:25.265Z,5.45
2022-11-29T03:08:17.849Z,4.97
2022-11-29T03:10:56.453Z,4.63
2022-11-29T03:13:27.659Z,5.03
2022-11-29T03:16:09.057Z,4.60
2022-11-29T03:19:00.503Z,4.97
2022-11-29T03:21:47.910Z,4.30
2022-11-29T03:24:21.265Z,5.13
2022-11-29T03:26:52.118Z,4.13
2022-11-29T03:29:30.207Z,4.55
2022-11-29T03:32:03.733Z,4.20
2022-11-29T03:34:40.044Z,4.45
2022-11-29T03:37:15.750Z,4.00
2022-11-29T03:39:51.964Z,4.38
2022-11-29T03:42:27.763Z,3.95
2022-11-29T03:45:05.168Z,4.20
2022-11-29T03:47:49.419Z,4.25
2022-11-29T03:50:26.431Z,4.67
2022-11-29T03:53:14.815Z,3.92
2022-11-29T03:55:57.452Z,3.60
2022-11-29T03:58:54.697Z,3.63
2022-11-29T04:01:21.270Z,3.75
2022-11-29T04:04:16.001Z,3.72
2022-11-29T04:07:01.096Z,3.63
2022-11-29T04:09:42.266Z,3.85
2022-11-29T04:12:41.277Z,3.65
2022-11-29T04:15:38.667Z,3.22
2022-11-29T04:18:29.887Z,3.33
2022-11-29T04:21:09.020Z,3.05
2022-11-29T04:24:12.932Z,3.22
2022-11-29T04:26:51.400Z,3.03
2022-11-29T04:29:40.076Z,3.78
2022-11-29T04:32:31.424Z,3.17
2022-11-29T04:35:18.990Z,3.35
2022-11-29T04:38:32.919Z,3.50
2022-11-29T04:41:17.847Z,3.17
2022-11-29T04:43:50.083Z,2.95
2022-11-29T04:46:41.185Z,3.30
2022-11-29T04:49:19.183Z,3.05
2022-11-29T04:52:00.743Z,3.28
2022-11-29T04:54:34.632Z,3.17
2022-11-29T04:57:16.874Z,3.47
2022-11-29T04:59:52.052Z,2.58
2022-11-29T05:03:01.534Z,2.97
2022-11-29T05:05:40.301Z,3.28
2022-11-29T05:08:19.983Z,2.83
2022-11-29T05:11:02.570Z,2.80
2022-11-29T05:13:58.322Z,3.08
2022-11-29T05:17:01.423Z,2.60
2022-11-29T05:19:39.732Z,3.00
2022-11-29T05:22:29.458Z,3.10
2022-11-29T05:25:11.404Z,2.90
2022-11-29T05:27:40.686Z,3.10
2022-11-29T05:30:19.078Z,2.80
2022-11-29T05:32:51.055Z,2.72
2022-11-29T05:35:34.719Z,2.90
2022-11-29T05:38:13.627Z,2.75
2022-11-29T05:40:53.885Z,3.10
2022-11-29T05:43:32.671Z,2.70
2022-11-29T05:46:44.182Z,2.63
2022-11-29T05:49:48.792Z,3.40
2022-11-29T05:52:32.000Z,3.50
2022-11-29T05:55:14.402Z,3.28
2022-11-29T05:58:02.726Z,2.45
2022-11-29T06:00:48.888Z,2.65
2022-11-29T06:03:24.920Z,2.80
2022-11-29T06:05:56.941Z,3.50
2022-11-29T06:08:29.603Z,3.40
2022-11-29T06:11:16.914Z,2.95
2022-11-29T06:14:02.924Z,2.70
2022-11-29T06:16:42.677Z,3.03
2022-11-29T06:20:00.805Z,2.75
2022-11-29T06:22:45.088Z,2.90
2022-11-29T06:25:21.612Z,2.40
2022-11-29T06:28:25.938Z,2.00
2022-11-29T06:31:00.572Z,2.10
2022-11-29T06:36:19.349Z,2.58
2022-11-29T06:38:46.629Z,1.95
2022-11-29T06:41:20.337Z,2.40
2022-11-29T06:43:47.944Z,1.65
2022-11-29T06:46:32.818Z,2.13
2022-11-29T06:49:18.677Z,2.22
2022-11-29T06:51:53.456Z,1.55
2022-11-29T06:55:11.104Z,2.60
2022-11-29T06:57:40.389Z,1.52
2022-11-29T07:00:20.188Z,2.00
2022-11-29T07:03:06.659Z,2.00
2022-11-29T07:05:35.788Z,2.10
2022-11-29T07:08:05.375Z,2.00
2022-11-29T07:10:35.059Z,1.90
2022-11-29T07:13:03.809Z,1.80
2022-11-29T07:15:30.909Z,1.77
2022-11-29T07:18:12.600Z,1.30
2022-11-29T07:20:57.838Z,2.20
2022-11-29T07:26:38.416Z,2.00
2022-11-29T07:29:16.967Z,1.52
2022-11-29T07:32:02.311Z,1.75
2022-11-29T07:34:35.321Z,1.60
2022-11-29T07:37:26.854Z,1.80
2022-11-29T07:40:23.390Z,2.03
2022-11-29T07:43:16.544Z,1.80
2022-11-29T07:45:46.015Z,2.22
2022-11-29T07:48:12.948Z,1.98
2022-11-29T07:50:40.113Z,1.60
2022-11-29T07:53:06.693Z,1.50
2022-11-29T07:55:34.707Z,1.60
2022-11-29T07:58:01.265Z,1.85
2022-11-29T08:00:27.900Z,1.83
2022-11-29T08:02:54.428Z,2.03
2022-11-29T08:05:22.280Z,1.73
2022-11-29T08:07:49.419Z,1.60
2022-11-29T08:10:16.852Z,1.58
2022-11-29T08:12:45.070Z,1.67
2022-11-29T08:15:13.029Z,1.30
2022-11-29T08:17:39.795Z,1.83
2022-11-29T08:20:07.692Z,1.70
2022-11-29T08:22:34.770Z,1.70
2022-11-29T08:25:02.275Z,2.25
2022-11-29T08:27:28.937Z,1.77
2022-11-29T08:29:55.637Z,1.73
2022-11-29T08:32:22.306Z,1.67
2022-11-29T08:34:48.932Z,1.63
2022-11-29T08:37:15.515Z,1.20
2022-11-29T08:39:42.626Z,1.98
2022-11-29T08:42:09.600Z,1.80
2022-11-29T08:44:36.265Z,1.33
2022-11-29T08:47:22.066Z,1.92
2022-11-29T08:52:51.517Z,1.42
2022-11-29T08:55:20.184Z,1.50
2022-11-29T08:57:50.836Z,1.65
2022-11-29T09:00:19.380Z,1.98
2022-11-29T09:02:46.043Z,1.90
2022-11-29T09:05:12.980Z,1.98
2022-11-29T09:07:40.918Z,2.38
2022-11-29T09:10:09.170Z,2.08
2022-11-29T09:12:37.300Z,1.63
2022-11-29T09:15:06.049Z,19.80
2022-11-29T09:17:33.621Z,4.50
2022-11-29T09:20:04.542Z,3.05
2022-11-29T09:22:31.768Z,2.78
2022-11-29T09:25:00.031Z,2.95
2022-11-29T09:27:26.676Z,2.97
2022-11-29T09:29:53.247Z,4.20
2022-11-29T09:32:20.003Z,2.50
2022-11-29T09:34:46.824Z,2.10
2022-11-29T09:37:14.892Z,2.17
2022-11-29T09:39:41.855Z,2.40
2022-11-29T09:42:42.895Z,2.33
2022-11-29T09:45:18.436Z,2.60
2022-11-29T09:50:43.040Z,2.40
2022-11-29T09:53:51.516Z,2.00
2022-11-29T09:56:23.562Z,2.00
2022-11-29T09:58:56.685Z,2.05
2022-11-29T10:01:29.698Z,2.00
2022-11-29T10:04:11.957Z,2.10
2022-11-29T10:06:45.747Z,2.10
2022-11-29T10:09:23.128Z,2.20
2022-11-29T10:12:00.004Z,1.98
2022-11-29T10:14:30.980Z,1.63
2022-11-29T10:17:05.174Z,1.65
2022-11-29T10:19:36.660Z,1.80
2022-11-29T10:22:32.850Z,2.28
2022-11-29T10:25:01.727Z,1.90
2022-11-29T10:27:29.599Z,1.60
2022-11-29T10:29:59.152Z,2.10
2022-11-29T10:32:26.109Z,1.83
2022-11-29T10:34:52.884Z,1.48
2022-11-29T10:37:21.360Z,1.85
2022-11-29T10:40:15.765Z,1.60
2022-11-29T10:42:54.545Z,1.65
2022-11-29T10:45:33.868Z,1.80
2022-11-29T10:48:11.095Z,2.10
2022-11-29T10:50:41.526Z,2.15
2022-11-29T10:53:11.745Z,1.67
2022-11-29T10:56:11.696Z,1.50
2022-11-29T10:58:54.653Z,2.00
2022-11-29T11:01:21.524Z,1.63
2022-11-29T11:03:53.606Z,1.42
2022-11-29T11:06:21.126Z,1.60
2022-11-29T11:08:51.644Z,1.73
2022-11-29T11:11:32.059Z,1.77
2022-11-29T11:14:09.538Z,1.70
2022-11-29T11:16:37.709Z,1.30
2022-11-29T11:19:28.249Z,2.65
2022-11-29T11:21:56.543Z,1.63
2022-11-29T11:24:41.651Z,1.50
2022-11-29T11:27:08.352Z,1.50
2022-11-29T11:29:40.056Z,1.30
2022-11-29T11:32:18.945Z,1.20
2022-11-29T11:34:54.730Z,2.22
2022-11-29T11:37:29.551Z,1.83
2022-11-29T11:39:58.846Z,1.95
2022-11-29T11:42:38.244Z,1.63
2022-11-29T11:45:10.920Z,1.30
2022-11-29T11:47:46.865Z,0.93
2022-11-29T11:50:16.724Z,1.42
2022-11-29T11:52:52.489Z,1.17
2022-11-29T11:55:19.001Z,1.20
2022-11-29T11:57:45.627Z,1.00
2022-11-29T12:01:06.569Z,1.30
2022-11-29T12:04:05.385Z,1.30
2022-11-29T12:06:45.061Z,1.15
2022-11-29T12:09:22.004Z,1.52
2022-11-29T12:11:56.643Z,1.02
2022-11-29T12:15:07.600Z,0.85
2022-11-29T12:17:41.916Z,0.98
2022-11-29T12:20:23.543Z,0.98
2022-11-29T12:22:50.690Z,1.38
2022-11-29T12:25:24.571Z,0.90
2022-11-29T12:27:51.989Z,1.10
2022-11-29T12:30:19.211Z,1.42
2022-11-29T12:32:57.205Z,1.13
2022-11-29T12:35:32.473Z,0.73
2022-11-29T12:38:23.407Z,1.13
2022-11-29T12:41:20.525Z,1.00
2022-11-29T12:44:19.563Z,0.95
2022-11-29T12:47:02.080Z,1.10
2022-11-29T12:50:01.212Z,1.60
2022-11-29T12:53:01.413Z,0.93
2022-11-29T12:55:45.041Z,1.40
2022-11-29T12:58:45.510Z,0.73
2022-11-29T13:01:29.391Z,1.20
2022-11-29T13:04:13.340Z,1.10
2022-11-29T13:07:12.507Z,1.33
2022-11-29T13:09:49.219Z,1.33
2022-11-29T13:12:24.888Z,0.90
2022-11-29T13:15:06.577Z,1.10
2022-11-29T13:17:53.344Z,1.13
2022-11-29T13:20:38.453Z,1.08
2022-11-29T13:24:06.926Z,1.00
2022-11-29T13:26:27.139Z,1.30
2022-11-29T13:28:54.280Z,1.17
2022-11-29T13:31:23.135Z,1.35
2022-11-29T13:33:55.313Z,0.95
2022-11-29T13:36:46.884Z,1.02
2022-11-29T13:39:22.314Z,1.08
2022-11-29T13:42:14.053Z,0.80
2022-11-29T13:44:49.797Z,1.20
2022-11-29T13:47:18.493Z,1.30
2022-11-29T13:50:18.452Z,1.20
2022-11-29T13:53:11.900Z,0.90
2022-11-29T13:56:01.863Z,0.90
2022-11-29T13:58:52.862Z,1.10
2022-11-29T14:01:46.495Z,0.95
2022-11-29T14:04:39.237Z,0.93
2022-11-29T14:07:24.512Z,0.90
2022-11-29T14:10:28.544Z,1.05
2022-11-29T14:12:56.770Z,1.08
2022-11-29T14:15:28.122Z,1.60
2022-11-29T14:17:55.855Z,0.98
2022-11-29T14:20:22.280Z,1.77
2022-11-29T14:23:04.159Z,1.00
2022-11-29T14:25:51.789Z,1.20
2022-11-29T14:28:21.729Z,1.13
2022-11-29T14:30:53.359Z,1.05
2022-11-29T14:33:44.818Z,1.13
2022-11-29T14:36:39.026Z,1.60
2022-11-29T14:39:20.497Z,0.95
2022-11-29T14:41:56.904Z,0.98
2022-11-29T14:44:26.047Z,1.17
2022-11-29T14:47:07.278Z,1.13
2022-11-29T14:49:42.650Z,1.30
2022-11-29T14:52:15.318Z,1.33
2022-11-29T14:54:57.643Z,1.25
2022-11-29T14:57:49.228Z,1.45
2022-11-29T15:00:16.357Z,1.25
2022-11-29T15:02:42.956Z,1.05
2022-11-29T15:05:35.586Z,1.38
2022-11-29T15:11:09.009Z,0.98
2022-11-29T15:13:40.280Z,1.15
2022-11-29T15:16:29.554Z,1.25
2022-11-29T15:19:13.457Z,1.30
2022-11-29T15:22:10.087Z,1.00
2022-11-29T15:24:59.957Z,1.20
2022-11-29T15:27:27.524Z,1.00
2022-11-29T15:29:55.601Z,1.30
2022-11-29T15:32:26.052Z,1.63
2022-11-29T15:34:57.692Z,1.75
2022-11-29T15:37:37.532Z,1.52
2022-11-29T15:40:21.777Z,1.50
2022-11-29T15:42:50.676Z,1.57
2022-11-29T15:45:34.707Z,3.08
2022-11-29T15:48:32.685Z,2.53
2022-11-29T15:51:14.877Z,2.20
2022-11-29T15:53:48.380Z,1.10
2022-11-29T15:56:37.636Z,1.60
2022-11-29T15:59:35.089Z,1.42
2022-11-29T16:02:32.887Z,1.50
2022-11-29T16:05:22.930Z,1.70
2022-11-29T16:07:57.083Z,1.55
2022-11-29T16:10:35.011Z,1.45
2022-11-29T16:13:07.306Z,1.80
2022-11-29T16:15:41.528Z,1.70
2022-11-29T16:18:16.159Z,1.90
2022-11-29T16:20:43.080Z,1.83
2022-11-29T16:23:15.172Z,1.88
2022-11-29T16:25:56.547Z,1.92
2022-11-29T16:28:28.209Z,1.85
2022-11-29T16:30:55.981Z,2.17
2022-11-29T16:33:25.077Z,2.05
2022-11-29T16:36:12.494Z,1.90
2022-11-29T16:38:47.227Z,1.52
2022-11-29T16:41:31.877Z,1.73
2022-11-29T16:44:00.468Z,1.80
2022-11-29T16:46:35.808Z,1.60
2022-11-29T16:49:34.830Z,1.75
2022-11-29T16:52:03.993Z,1.70
2022-11-29T16:54:34.844Z,2.03
2022-11-29T16:57:05.981Z,1.60
2022-11-29T16:59:35.609Z,1.95
2022-11-29T17:02:03.318Z,2.58
2022-11-29T17:04:32.158Z,2.10
2022-11-29T17:06:59.943Z,2.38
2022-11-29T17:09:30.671Z,2.78
2022-11-29T17:12:02.033Z,2.47
2022-11-29T17:14:30.501Z,2.53
2022-11-29T17:17:01.329Z,2.58
2022-11-29T17:19:28.952Z,2.35
2022-11-29T17:21:55.543Z,1.80
2022-11-29T17:24:23.797Z,1.67
2022-11-29T17:26:50.677Z,1.67
2022-11-29T17:29:18.261Z,1.65
2022-11-29T17:31:45.688Z,1.75
2022-11-29T17:34:12.962Z,2.03
2022-11-29T17:36:40.436Z,1.52
2022-11-29T17:39:07.427Z,1.60
2022-11-29T17:41:36.179Z,2.08
2022-11-29T17:44:02.977Z,1.80
2022-11-29T17:46:31.674Z,1.52
2022-11-29T17:49:00.001Z,1.65
2022-11-29T17:54:14.313Z,1.63
2022-11-29T17:56:41.043Z,1.40
2022-11-29T17:59:07.729Z,1.40
2022-11-29T18:01:35.907Z,1.20
2022-11-29T18:04:04.468Z,2.00
2022-11-29T18:06:35.830Z,1.40
2022-11-29T18:09:04.166Z,1.45
2022-11-29T18:11:44.921Z,1.98
2022-11-29T18:16:51.516Z,1.60
2022-11-29T18:19:21.952Z,1.55
2022-11-29T18:21:50.456Z,1.65
2022-11-29T18:24:23.628Z,1.23
2022-11-29T18:26:57.640Z,1.50
2022-11-29T18:29:25.323Z,1.73
2022-11-29T18:31:52.666Z,1.70
2022-11-29T18:34:20.236Z,1.88
2022-11-29T18:41:18.265Z,1.58
2022-11-29T18:43:47.572Z,1.17
2022-11-29T18:46:17.109Z,1.80
2022-11-29T18:48:47.102Z,1.30
2022-11-29T18:51:18.252Z,1.50
2022-11-29T18:53:46.128Z,1.40
2022-11-29T18:56:19.111Z,1.40
2022-11-29T18:58:48.416Z,1.20
2022-11-29T19:01:18.707Z,1.52
2022-11-29T19:03:50.711Z,1.52
2022-11-29T19:06:21.856Z,1.42
2022-11-29T19:08:49.727Z,1.65
2022-11-29T19:11:19.859Z,1.67
2022-11-29T19:13:47.927Z,1.40
2022-11-29T19:16:18.004Z,2.58
2022-11-29T19:18:46.437Z,2.17
2022-11-29T19:21:15.536Z,1.00
2022-11-29T19:23:45.458Z,1.17
2022-11-29T19:26:16.087Z,2.05
2022-11-29T19:28:46.107Z,1.58
2022-11-29T19:31:18.151Z,1.40
2022-11-29T19:33:47.282Z,1.55
2022-11-29T19:36:22.246Z,1.58
2022-11-29T19:38:53.374Z,1.40
2022-11-29T19:41:26.619Z,1.35
2022-11-29T19:43:55.317Z,1.63
2022-11-29T19:46:27.204Z,1.55
2022-11-29T19:48:57.622Z,1.20
2022-11-29T19:51:25.456Z,1.65
2022-11-29T19:53:53.705Z,1.33
2022-11-29T19:56:21.364Z,1.20
2022-11-29T19:58:48.716Z,1.00
2022-11-29T20:01:28.035Z,1.20
2022-11-29T20:03:55.477Z,1.45
2022-11-29T20:06:24.518Z,1.10
2022-11-29T20:08:51.413Z,1.38
2022-11-29T20:11:21.185Z,1.60
2022-11-29T20:13:55.504Z,1.10
2022-11-29T20:16:23.273Z,1.10
2022-11-29T20:18:53.423Z,1.60
2022-11-29T20:21:31.347Z,1.05
2022-11-29T20:24:02.612Z,1.23
2022-11-29T20:26:32.100Z,1.20
2022-11-29T20:28:59.789Z,1.30
2022-11-29T20:31:27.152Z,1.20
2022-11-29T20:33:57.455Z,1.30
2022-11-29T20:36:30.316Z,1.77
2022-11-29T20:39:09.540Z,1.25
2022-11-29T20:42:18.763Z,1.42
2022-11-29T20:44:59.201Z,0.90
2022-11-29T20:47:49.795Z,1.85
2022-11-29T20:50:26.364Z,1.13
2022-11-29T20:53:05.775Z,1.60
2022-11-29T20:55:33.439Z,1.45
2022-11-29T20:58:00.325Z,1.55
2022-11-29T21:00:26.913Z,1.60
2022-11-29T21:02:53.570Z,1.10
2022-11-29T21:05:20.239Z,1.50
2022-11-29T21:07:46.879Z,1.40
2022-11-29T21:10:15.430Z,1.25
2022-11-29T21:12:43.329Z,1.27
2022-11-29T21:15:11.335Z,1.27
2022-11-29T21:17:38.437Z,1.40
2022-11-29T21:20:06.023Z,1.27
2022-11-29T21:22:42.132Z,1.08
2022-11-29T21:25:27.627Z,1.20
2022-11-29T21:27:55.179Z,1.17
2022-11-29T21:30:24.418Z,1.48
2022-11-29T21:32:51.503Z,1.40
2022-11-29T21:35:18.597Z,1.38
2022-11-29T21:37:45.673Z,1.30
2022-11-29T21:40:13.306Z,1.63
2022-11-29T21:42:40.030Z,1.65
2022-11-29T21:45:14.601Z,1.83
2022-11-29T21:47:44.215Z,1.20
2022-11-29T21:50:12.274Z,1.13
2022-11-29T21:52:38.969Z,1.27
2022-11-29T21:55:06.173Z,1.13
2022-11-29T21:57:33.067Z,0.90
2022-11-29T21:59:59.848Z,1.48
2022-11-29T22:02:26.497Z,1.08
2022-11-29T22:04:53.282Z,1.25
2022-11-29T22:07:19.994Z,1.20
2022-11-29T22:09:46.555Z,132.82
2022-11-29T22:12:33.284Z,18.58
2022-11-29T22:14:59.768Z,7.28
2022-11-29T22:17:26.293Z,13.60
2022-11-29T22:19:52.902Z,14.52
2022-11-29T22:22:21.371Z,13.45
2022-11-29T22:24:48.227Z,11.65
2022-11-29T22:27:14.880Z,10.02
2022-11-29T22:29:41.853Z,9.82
2022-11-29T22:32:08.409Z,9.23
2022-11-29T22:34:35.040Z,8.85
2022-11-29T22:37:01.689Z,8.23
2022-11-29T22:39:28.268Z,7.93
2022-11-29T22:41:55.414Z,7.43
2022-11-29T22:44:23.263Z,7.43
2022-11-29T22:46:50.049Z,7.22
2022-11-29T22:49:16.702Z,7.13
2022-11-29T22:51:43.592Z,6.38
2022-11-29T22:54:11.539Z,6.68
2022-11-29T22:56:40.819Z,6.55
2022-11-29T22:59:08.451Z,6.15
2022-11-29T23:01:36.937Z,5.60
2022-11-29T23:04:06.048Z,5.70
2022-11-29T23:06:40.985Z,4.90
2022-11-29T23:09:16.308Z,5.77
2022-11-29T23:11:45.798Z,5.63
2022-11-29T23:14:13.261Z,5.50
2022-11-29T23:16:40.726Z,5.20
2022-11-29T23:19:07.369Z,5.25
2022-11-29T23:21:37.063Z,5.53
2022-11-29T23:24:04.338Z,5.18
2022-11-29T23:26:36.313Z,5.00
2022-11-29T23:29:08.358Z,5.22
2022-11-29T23:31:35.468Z,5.30
2022-11-29T23:34:02.366Z,4.20
2022-11-29T23:36:29.375Z,4.65
2022-11-29T23:38:56.001Z,4.72
2022-11-29T23:41:22.742Z,4.53
2022-11-29T23:43:49.316Z,4.43
2022-11-29T23:46:21.487Z,5.03
2022-11-29T23:48:48.323Z,4.63
2022-11-29T23:51:15.796Z,4.80
2022-11-29T23:53:43.009Z,4.22
2022-11-29T23:56:14.746Z,4.63
2022-11-29T23:58:41.829Z,4.18
